createdAt,value
2022-12-03T00:00:12.903Z,4.80
2022-12-03T00:02:42.076Z,4.70
2022-12-03T00:05:10.422Z,4.70
2022-12-03T00:07:37.911Z,4.70
2022-12-03T00:10:06.608Z,4.70
2022-12-03T00:12:33.652Z,4.70
2022-12-03T00:15:00.954Z,4.70
2022-12-03T00:17:28.259Z,4.70
2022-12-03T00:19:55.676Z,4.70
2022-12-03T00:22:23.213Z,4.80
2022-12-03T00:24:50.578Z,4.80
2022-12-03T00:27:17.930Z,4.80
2022-12-03T00:29:45.701Z,4.90
2022-12-03T00:32:14.223Z,4.90
2022-12-03T00:34:41.319Z,4.90
2022-12-03T00:37:08.421Z,4.90
2022-12-03T00:39:35.470Z,4.90
2022-12-03T00:42:03.012Z,4.80
2022-12-03T00:44:30.485Z,4.90
2022-12-03T00:46:57.560Z,5.10
2022-12-03T00:49:24.615Z,4.80
2022-12-03T00:51:52.559Z,4.80
2022-12-03T00:54:19.746Z,4.80
2022-12-03T00:56:46.853Z,4.80
2022-12-03T00:59:15.620Z,4.80
2022-12-03T01:01:42.821Z,4.90
2022-12-03T01:04:09.980Z,4.80
2022-12-03T01:06:37.083Z,4.90
2022-12-03T01:09:04.560Z,4.90
2022-12-03T01:11:38.377Z,4.90
2022-12-03T01:14:08.180Z,4.90
2022-12-03T01:16:36.301Z,4.90
2022-12-03T01:19:04.601Z,4.90
2022-12-03T01:21:31.925Z,4.80
2022-12-03T01:24:01.621Z,4.80
2022-12-03T01:26:28.659Z,4.90
2022-12-03T01:28:55.775Z,4.80
2022-12-03T01:31:41.585Z,4.80
2022-12-03T01:34:08.884Z,4.80
2022-12-03T01:36:35.803Z,4.80
2022-12-03T01:39:04.303Z,4.80
2022-12-03T01:41:32.314Z,4.80
2022-12-03T01:44:00.104Z,4.80
2022-12-03T01:46:46.027Z,4.90
2022-12-03T01:49:22.669Z,4.80
2022-12-03T01:51:52.923Z,4.80
2022-12-03T01:54:25.589Z,4.80
2022-12-03T01:56:54.574Z,4.80
2022-12-03T01:59:30.079Z,4.80
2022-12-03T02:01:57.884Z,4.80
2022-12-03T02:04:27.905Z,4.80
2022-12-03T02:06:55.655Z,4.80
2022-12-03T02:09:26.518Z,4.80
2022-12-03T02:11:55.949Z,4.80
2022-12-03T02:14:23.392Z,4.80
2022-12-03T02:16:50.626Z,4.80
2022-12-03T02:19:27.756Z,4.80
2022-12-03T02:22:08.007Z,4.80
2022-12-03T02:24:59.705Z,4.70
2022-12-03T02:27:29.126Z,4.70
2022-12-03T02:29:57.554Z,4.70
2022-12-03T02:32:24.867Z,4.60
2022-12-03T02:34:56.184Z,4.80
2022-12-03T02:37:27.471Z,4.70
2022-12-03T02:40:00.514Z,4.60
2022-12-03T02:42:37.486Z,4.60
2022-12-03T02:45:29.235Z,4.60
2022-12-03T02:48:02.804Z,4.60
2022-12-03T02:50:33.938Z,4.60
2022-12-03T02:53:05.551Z,4.70
2022-12-03T02:55:49.245Z,4.60
2022-12-03T02:58:16.612Z,4.60
2022-12-03T03:00:45.150Z,4.50
2022-12-03T03:03:12.846Z,4.50
2022-12-03T03:05:42.148Z,4.40
2022-12-03T03:08:10.377Z,4.40
2022-12-03T03:10:40.695Z,4.40
2022-12-03T03:13:12.461Z,4.50
2022-12-03T03:15:41.665Z,4.50
2022-12-03T03:18:11.550Z,4.50
2022-12-03T03:20:39.195Z,4.50
2022-12-03T03:23:18.512Z,4.50
2022-12-03T03:25:50.048Z,4.50
2022-12-03T03:28:19.992Z,4.40
2022-12-03T03:30:47.368Z,4.40
2022-12-03T03:33:16.349Z,4.40
2022-12-03T03:35:44.905Z,4.40
2022-12-03T03:38:12.805Z,4.40
2022-12-03T03:40:40.614Z,4.40
2022-12-03T03:43:07.717Z,4.50
2022-12-03T03:45:37.985Z,4.40
2022-12-03T03:48:07.026Z,4.60
2022-12-03T03:50:34.813Z,4.40
2022-12-03T03:53:03.439Z,4.40
2022-12-03T03:55:31.350Z,4.30
2022-12-03T03:58:04.392Z,4.30
2022-12-03T04:00:32.669Z,4.30
2022-12-03T04:02:59.768Z,4.30
2022-12-03T04:05:27.885Z,4.30
2022-12-03T04:07:54.980Z,4.30
2022-12-03T04:10:40.520Z,4.20
2022-12-03T04:13:07.441Z,4.20
2022-12-03T04:15:34.486Z,4.20
2022-12-03T04:18:20.128Z,4.20
2022-12-03T04:20:48.048Z,4.20
2022-12-03T04:23:15.084Z,4.20
2022-12-03T04:26:00.400Z,4.20
2022-12-03T04:28:46.052Z,4.10
2022-12-03T04:31:31.642Z,4.10
2022-12-03T04:34:17.718Z,4.10
2022-12-03T04:36:44.758Z,4.10
2022-12-03T04:39:12.007Z,4.10
2022-12-03T04:41:39.142Z,4.10
2022-12-03T04:44:25.052Z,4.10
2022-12-03T04:46:52.032Z,4.10
2022-12-03T04:49:19.200Z,4.10
2022-12-03T04:51:46.357Z,4.10
2022-12-03T04:54:14.810Z,4.10
2022-12-03T04:56:41.985Z,4.10
2022-12-03T04:59:15.756Z,4.10
2022-12-03T05:01:44.066Z,4.10
2022-12-03T05:04:15.080Z,4.20
2022-12-03T05:06:46.192Z,4.20
2022-12-03T05:09:13.650Z,4.20
2022-12-03T05:11:41.816Z,4.30
2022-12-03T05:14:09.329Z,4.30
2022-12-03T05:16:37.650Z,4.30
2022-12-03T05:19:06.859Z,4.30
2022-12-03T05:21:34.231Z,4.30
2022-12-03T05:24:08.633Z,4.30
2022-12-03T05:26:35.629Z,4.30
2022-12-03T05:29:02.896Z,4.50
2022-12-03T05:31:30.197Z,4.40
2022-12-03T05:33:57.160Z,4.40
2022-12-03T05:36:25.463Z,4.50
2022-12-03T05:38:52.652Z,4.60
2022-12-03T05:41:38.360Z,4.40
2022-12-03T05:44:05.533Z,4.50
2022-12-03T05:46:33.048Z,4.60
2022-12-03T05:49:00.201Z,4.80
2022-12-03T05:51:27.694Z,4.60
2022-12-03T05:53:57.340Z,4.60
2022-12-03T05:56:25.938Z,4.60
2022-12-03T05:58:53.018Z,4.60
2022-12-03T06:01:21.413Z,4.60
2022-12-03T06:03:48.639Z,4.60
2022-12-03T06:06:16.394Z,4.50
2022-12-03T06:08:43.505Z,4.50
2022-12-03T06:11:10.579Z,4.60
2022-12-03T06:13:37.815Z,4.60
2022-12-03T06:16:05.328Z,4.60
2022-12-03T06:18:32.264Z,4.60
2022-12-03T06:20:59.139Z,4.60
2022-12-03T06:23:26.054Z,4.60
2022-12-03T06:25:53.133Z,4.70
2022-12-03T06:28:20.114Z,4.80
2022-12-03T06:30:47.134Z,4.70
2022-12-03T06:33:14.081Z,4.70
2022-12-03T06:35:41.122Z,4.70
2022-12-03T06:38:08.155Z,4.70
2022-12-03T06:40:35.458Z,4.70
2022-12-03T06:43:02.624Z,4.70
2022-12-03T06:45:30.370Z,4.70
2022-12-03T06:47:57.449Z,4.70
2022-12-03T06:50:24.423Z,4.80
2022-12-03T06:52:51.282Z,4.80
2022-12-03T06:55:18.187Z,4.80
2022-12-03T06:57:45.431Z,4.80
2022-12-03T07:00:13.009Z,4.90
2022-12-03T07:02:40.131Z,4.80
2022-12-03T07:05:07.977Z,4.80
2022-12-03T07:07:35.166Z,4.80
2022-12-03T07:10:02.568Z,4.80
2022-12-03T07:12:29.521Z,4.70
2022-12-03T07:14:57.418Z,4.70
2022-12-03T07:17:24.501Z,4.80
2022-12-03T07:19:52.098Z,4.70
2022-12-03T07:22:19.908Z,4.80
2022-12-03T07:24:47.105Z,4.80
2022-12-03T07:27:23.058Z,4.80
2022-12-03T07:29:50.270Z,4.80
2022-12-03T07:32:17.543Z,4.80
2022-12-03T07:34:44.712Z,4.80
2022-12-03T07:37:11.860Z,4.80
2022-12-03T07:39:40.844Z,4.70
2022-12-03T07:42:09.547Z,4.70
2022-12-03T07:44:36.617Z,4.70
2022-12-03T07:47:03.691Z,4.70
2022-12-03T07:49:30.933Z,4.70
2022-12-03T07:51:58.248Z,4.80
2022-12-03T07:54:26.035Z,4.80
2022-12-03T07:56:59.606Z,4.80
2022-12-03T07:59:29.214Z,4.80
2022-12-03T08:01:56.765Z,4.80
2022-12-03T08:04:23.883Z,4.80
2022-12-03T08:06:51.028Z,4.80
2022-12-03T08:09:18.423Z,4.90
2022-12-03T08:11:48.540Z,4.80
2022-12-03T08:14:19.103Z,4.90
2022-12-03T08:16:47.908Z,4.80
2022-12-03T08:19:17.978Z,4.90
2022-12-03T08:21:45.703Z,4.90
2022-12-03T08:24:17.079Z,4.90
2022-12-03T08:26:45.427Z,4.90
2022-12-03T08:29:15.303Z,5.00
2022-12-03T08:31:46.048Z,5.00
2022-12-03T08:34:22.287Z,5.00
2022-12-03T08:37:01.764Z,5.00
2022-12-03T08:39:34.454Z,5.00
2022-12-03T08:42:44.536Z,5.00
2022-12-03T08:45:40.735Z,4.80
2022-12-03T08:48:13.551Z,5.00
2022-12-03T08:50:42.609Z,5.00
2022-12-03T08:53:25.353Z,5.10
2022-12-03T08:55:54.476Z,5.00
2022-12-03T08:58:31.854Z,5.10
2022-12-03T09:01:10.832Z,5.20
2022-12-03T09:03:54.913Z,5.20
2022-12-03T09:06:23.697Z,5.20
2022-12-03T09:08:51.128Z,5.20
2022-12-03T09:11:19.360Z,5.20
2022-12-03T09:13:46.598Z,5.20
2022-12-03T09:16:13.725Z,5.20
2022-12-03T09:18:40.878Z,5.20
2022-12-03T09:21:07.836Z,5.30
2022-12-03T09:23:34.973Z,5.30
2022-12-03T09:26:01.949Z,5.30
2022-12-03T09:28:28.955Z,5.40
2022-12-03T09:30:56.085Z,5.30
2022-12-03T09:33:23.364Z,5.40
2022-12-03T09:35:50.701Z,5.40
2022-12-03T09:38:17.699Z,5.50
2022-12-03T09:40:44.714Z,5.60
2022-12-03T09:43:13.861Z,5.80
2022-12-03T09:45:41.182Z,5.60
2022-12-03T09:48:08.286Z,5.70
2022-12-03T09:50:40.374Z,5.70
2022-12-03T09:53:10.816Z,5.80
2022-12-03T09:55:38.100Z,5.90
2022-12-03T09:58:12.345Z,5.80
2022-12-03T10:00:40.148Z,5.90
2022-12-03T10:03:13.018Z,5.80
2022-12-03T10:05:43.837Z,5.80
2022-12-03T10:08:20.992Z,5.80
2022-12-03T10:10:55.167Z,5.70
2022-12-03T10:13:28.756Z,5.70
2022-12-03T10:15:57.979Z,5.70
2022-12-03T10:18:30.703Z,5.70
2022-12-03T10:20:58.522Z,5.70
2022-12-03T10:23:28.404Z,5.70
2022-12-03T10:26:03.736Z,5.90
2022-12-03T10:28:32.758Z,5.80
2022-12-03T10:31:02.182Z,5.70
2022-12-03T10:33:40.892Z,5.70
2022-12-03T10:36:27.062Z,5.70
2022-12-03T10:39:12.432Z,5.70
2022-12-03T10:41:41.278Z,5.70
2022-12-03T10:44:26.093Z,5.70
2022-12-03T10:47:10.955Z,5.90
2022-12-03T10:49:39.196Z,5.90
2022-12-03T10:52:14.250Z,5.80
2022-12-03T10:54:41.546Z,5.80
2022-12-03T10:57:10.636Z,5.80
2022-12-03T10:59:39.491Z,5.80
2022-12-03T11:02:21.185Z,5.80
2022-12-03T11:04:48.944Z,5.80
2022-12-03T11:07:19.751Z,5.80
2022-12-03T11:09:50.260Z,5.80
2022-12-03T11:12:28.397Z,5.80
2022-12-03T11:14:56.929Z,5.80
2022-12-03T11:18:02.028Z,5.80
2022-12-03T11:20:31.976Z,5.80
2022-12-03T11:22:59.953Z,5.80
2022-12-03T11:25:27.162Z,5.90
2022-12-03T11:28:15.958Z,5.80
2022-12-03T11:30:48.986Z,5.80
2022-12-03T11:33:22.570Z,5.80
2022-12-03T11:36:03.706Z,5.80
2022-12-03T11:38:53.957Z,5.80
2022-12-03T11:41:28.403Z,5.80
2022-12-03T11:43:56.472Z,5.80
2022-12-03T11:46:43.774Z,5.80
2022-12-03T11:49:28.916Z,5.80
2022-12-03T11:51:57.953Z,5.90
2022-12-03T11:54:25.604Z,5.80
2022-12-03T11:56:54.615Z,5.80
2022-12-03T11:59:21.958Z,5.80
2022-12-03T12:01:49.288Z,5.80
2022-12-03T12:04:34.663Z,5.70
2022-12-03T12:07:02.531Z,5.70
2022-12-03T12:09:53.479Z,5.60
2022-12-03T12:12:31.678Z,5.60
2022-12-03T12:15:00.049Z,5.70
2022-12-03T12:17:33.901Z,5.70
2022-12-03T12:20:27.353Z,5.70
2022-12-03T12:22:55.904Z,5.70
2022-12-03T12:25:39.332Z,5.60
2022-12-03T12:28:07.506Z,5.60
2022-12-03T12:54:33.818Z,6.40
2022-12-03T12:57:00.860Z,6.60
2022-12-03T12:59:29.502Z,6.50
2022-12-03T13:02:00.668Z,6.40
2022-12-03T13:04:30.737Z,6.30
2022-12-03T13:06:57.633Z,6.40
2022-12-03T13:09:26.234Z,6.20
2022-12-03T13:11:56.585Z,6.20
2022-12-03T13:14:26.462Z,6.10
2022-12-03T13:16:56.053Z,6.10
2022-12-03T13:19:39.573Z,6.00
2022-12-03T13:22:22.098Z,5.90
2022-12-03T13:24:51.340Z,5.90
2022-12-03T13:27:18.453Z,5.90
2022-12-03T13:29:53.261Z,5.90
2022-12-03T13:32:27.966Z,5.90
2022-12-03T13:35:05.510Z,5.80
2022-12-03T13:37:32.816Z,5.90
2022-12-03T13:40:30.659Z,5.90
2022-12-03T13:42:59.546Z,5.80
2022-12-03T13:45:37.937Z,5.80
2022-12-03T13:48:26.162Z,5.80
2022-12-03T13:50:55.138Z,5.80
2022-12-03T13:53:25.810Z,5.80
2022-12-03T13:56:15.568Z,5.80
2022-12-03T13:58:42.532Z,5.80
2022-12-03T14:01:10.145Z,5.70
2022-12-03T14:03:37.197Z,5.70
2022-12-03T14:06:04.170Z,5.80
2022-12-03T14:08:31.110Z,5.80
2022-12-03T14:11:00.526Z,5.80
2022-12-03T14:13:28.022Z,5.80
2022-12-03T14:15:55.398Z,5.80
2022-12-03T14:18:22.679Z,5.80
2022-12-03T14:20:50.277Z,5.80
2022-12-03T14:23:17.275Z,5.80
2022-12-03T14:25:45.240Z,5.80
2022-12-03T14:28:12.901Z,5.80
2022-12-03T14:30:40.001Z,5.70
2022-12-03T14:33:07.304Z,5.70
2022-12-03T14:35:35.717Z,5.70
2022-12-03T14:38:02.639Z,5.70
2022-12-03T14:40:29.603Z,5.70
2022-12-03T14:42:56.905Z,5.70
2022-12-03T14:45:25.223Z,5.70
2022-12-03T14:47:52.416Z,5.70
2022-12-03T14:50:19.682Z,5.70
2022-12-03T14:52:46.869Z,5.70
2022-12-03T14:55:13.877Z,5.70
2022-12-03T14:57:41.028Z,5.70
2022-12-03T15:00:08.628Z,5.70
2022-12-03T15:02:35.786Z,5.70
2022-12-03T15:05:02.957Z,5.60
2022-12-03T15:07:30.096Z,5.70
2022-12-03T15:09:58.683Z,5.70
2022-12-03T15:12:27.235Z,5.70
2022-12-03T15:14:54.751Z,5.70
2022-12-03T15:17:30.877Z,5.70
2022-12-03T15:19:58.916Z,5.60
2022-12-03T15:22:25.899Z,5.70
2022-12-03T15:24:54.148Z,5.60
2022-12-03T15:27:21.348Z,5.70
2022-12-03T15:29:49.304Z,5.70
2022-12-03T15:32:16.389Z,5.60
2022-12-03T15:34:43.662Z,5.70
2022-12-03T15:37:10.872Z,5.60
2022-12-03T15:39:52.700Z,5.60
2022-12-03T15:42:20.121Z,5.60
2022-12-03T15:44:49.188Z,5.60
2022-12-03T15:47:16.198Z,5.60
2022-12-03T15:49:43.162Z,5.60
2022-12-03T15:52:35.767Z,5.60
2022-12-03T15:55:02.811Z,5.50
2022-12-03T15:57:30.027Z,5.50
2022-12-03T15:59:57.524Z,5.50
2022-12-03T16:02:25.215Z,5.50
2022-12-03T16:04:52.207Z,5.50
2022-12-03T16:07:19.064Z,5.60
2022-12-03T16:09:46.392Z,5.50
2022-12-03T16:12:13.357Z,5.40
2022-12-03T16:14:40.614Z,5.40
2022-12-03T16:17:07.717Z,5.40
2022-12-03T16:19:35.017Z,5.50
2022-12-03T16:22:02.477Z,5.40
2022-12-03T16:24:29.449Z,5.40
2022-12-03T16:26:56.437Z,5.40
2022-12-03T16:29:23.609Z,5.40
2022-12-03T16:31:51.141Z,5.30
2022-12-03T16:34:18.143Z,5.40
2022-12-03T16:36:45.766Z,5.40
2022-12-03T16:39:13.049Z,5.30
2022-12-03T16:41:40.099Z,5.30
2022-12-03T16:44:07.384Z,5.40
2022-12-03T16:46:34.929Z,5.40
2022-12-03T16:49:03.773Z,5.40
2022-12-03T16:51:30.869Z,5.40
2022-12-03T16:53:58.003Z,5.50
2022-12-03T16:56:25.290Z,5.50
2022-12-03T16:58:52.563Z,5.40
2022-12-03T17:01:23.540Z,5.40
2022-12-03T17:03:50.946Z,5.40
2022-12-03T17:06:18.193Z,5.40
2022-12-03T17:08:49.434Z,5.40
2022-12-03T17:11:17.980Z,5.40
2022-12-03T17:13:45.529Z,5.40
2022-12-03T17:16:12.832Z,5.30
2022-12-03T17:18:40.145Z,5.30
2022-12-03T17:21:07.351Z,5.40
2022-12-03T17:23:34.685Z,5.30
2022-12-03T17:26:02.157Z,5.30
2022-12-03T17:28:29.219Z,5.30
2022-12-03T17:30:56.644Z,5.30
2022-12-03T17:33:25.304Z,5.30
2022-12-03T17:35:52.329Z,5.30
2022-12-03T17:38:19.563Z,5.10
2022-12-03T17:40:46.771Z,5.20
2022-12-03T17:43:13.910Z,5.30
2022-12-03T17:45:41.834Z,5.20
2022-12-03T17:48:10.118Z,5.20
2022-12-03T17:50:37.985Z,5.10
2022-12-03T17:53:07.966Z,5.20
2022-12-03T17:55:41.252Z,5.20
2022-12-03T17:58:13.064Z,5.20
2022-12-03T18:00:40.525Z,5.20
2022-12-03T18:03:10.352Z,5.30
2022-12-03T18:05:39.728Z,5.20
2022-12-03T18:08:07.260Z,5.20
2022-12-03T18:10:34.556Z,5.20
2022-12-03T18:13:02.520Z,5.20
2022-12-03T18:15:34.245Z,5.30
2022-12-03T18:18:07.564Z,5.30
2022-12-03T18:20:34.654Z,5.20
2022-12-03T18:23:01.877Z,5.20
2022-12-03T18:25:29.386Z,5.20
2022-12-03T18:27:56.936Z,5.20
2022-12-03T18:30:24.069Z,5.20
2022-12-03T18:32:51.345Z,5.30
2022-12-03T18:35:18.944Z,5.30
2022-12-03T18:37:46.145Z,5.30
2022-12-03T18:40:20.388Z,5.20
2022-12-03T18:42:47.781Z,5.20
2022-12-03T18:45:15.958Z,5.40
2022-12-03T18:47:43.713Z,5.20
2022-12-03T18:50:12.336Z,5.20
2022-12-03T18:52:40.090Z,5.10
2022-12-03T18:55:08.225Z,5.20
2022-12-03T18:57:35.285Z,5.10
2022-12-03T19:00:13.189Z,5.10
2022-12-03T19:05:28.305Z,5.20
2022-12-03T19:07:56.554Z,5.10
2022-12-03T19:10:24.371Z,5.10
2022-12-03T19:12:51.688Z,5.10
2022-12-03T19:15:21.417Z,5.10
2022-12-03T19:17:52.413Z,5.10
2022-12-03T19:20:20.319Z,5.20
2022-12-03T19:22:47.521Z,5.10
2022-12-03T19:25:17.796Z,5.10
2022-12-03T19:27:45.154Z,4.90
2022-12-03T19:30:12.940Z,5.10
2022-12-03T19:32:40.113Z,5.10
2022-12-03T19:35:07.846Z,5.00
2022-12-03T19:37:35.077Z,5.00
2022-12-03T19:40:02.551Z,4.90
2022-12-03T19:42:31.267Z,5.00
2022-12-03T19:44:58.701Z,4.90
2022-12-03T19:47:25.783Z,5.00
2022-12-03T19:49:53.954Z,5.00
2022-12-03T19:52:21.355Z,5.00
2022-12-03T19:54:48.793Z,5.00
2022-12-03T19:57:22.912Z,4.90
2022-12-03T19:59:50.806Z,5.00
2022-12-03T20:02:18.014Z,5.00
2022-12-03T20:04:45.445Z,5.00
2022-12-03T20:07:12.841Z,5.00
2022-12-03T20:09:39.929Z,5.00
2022-12-03T20:12:07.303Z,5.00
2022-12-03T20:14:34.373Z,5.00
2022-12-03T20:17:01.811Z,5.00
2022-12-03T20:19:30.123Z,5.00
2022-12-03T20:22:02.325Z,5.00
2022-12-03T20:24:29.953Z,5.00
2022-12-03T20:26:57.330Z,5.00
2022-12-03T20:29:24.356Z,5.00
2022-12-03T20:31:52.086Z,4.90
2022-12-03T20:34:19.682Z,4.90
2022-12-03T20:36:46.893Z,4.90
2022-12-03T20:39:14.134Z,4.90
2022-12-03T20:41:41.335Z,4.90
2022-12-03T20:44:08.422Z,5.00
2022-12-03T20:46:36.495Z,5.00
2022-12-03T20:49:03.792Z,4.90
2022-12-03T20:51:32.138Z,4.90
2022-12-03T20:54:00.887Z,4.90
2022-12-03T20:56:32.886Z,4.90
2022-12-03T20:59:02.404Z,4.90
2022-12-03T21:01:29.726Z,4.90
2022-12-03T21:03:57.571Z,4.90
2022-12-03T21:06:31.327Z,4.80
2022-12-03T21:09:01.366Z,4.80
2022-12-03T21:11:31.276Z,4.70
2022-12-03T21:13:59.969Z,4.60
2022-12-03T21:17:05.723Z,4.60
2022-12-03T21:19:21.095Z,4.60
2022-12-03T21:21:49.961Z,4.70
2022-12-03T21:24:17.230Z,4.60
2022-12-03T21:26:44.269Z,4.60
2022-12-03T21:29:11.481Z,4.60
2022-12-03T21:31:40.053Z,4.60
2022-12-03T21:34:08.517Z,4.50
2022-12-03T21:36:35.862Z,4.50
2022-12-03T21:39:05.283Z,4.40
2022-12-03T21:41:35.522Z,4.40
2022-12-03T21:44:03.120Z,4.40
2022-12-03T21:47:09.315Z,4.40
2022-12-03T21:49:19.658Z,4.30
2022-12-03T21:51:48.567Z,4.30
2022-12-03T21:54:15.799Z,4.30
2022-12-03T21:56:43.314Z,4.30
2022-12-03T21:59:10.884Z,4.30
2022-12-03T22:01:42.779Z,4.20
2022-12-03T22:04:13.567Z,4.30
2022-12-03T22:06:40.650Z,4.30
2022-12-03T22:09:08.517Z,4.30
2022-12-03T22:11:35.760Z,4.40
2022-12-03T22:14:04.864Z,4.30
2022-12-03T22:16:31.799Z,4.40
2022-12-03T22:18:59.241Z,4.40
2022-12-03T22:21:26.518Z,4.40
2022-12-03T22:23:55.925Z,4.40
2022-12-03T22:26:23.267Z,4.40
2022-12-03T22:28:50.780Z,4.40
2022-12-03T22:31:19.437Z,4.50
2022-12-03T22:33:48.492Z,4.50
2022-12-03T22:36:21.003Z,4.40
2022-12-03T22:38:50.342Z,4.40
2022-12-03T22:41:17.753Z,4.40
2022-12-03T22:43:46.032Z,4.40
2022-12-03T22:46:13.627Z,4.40
2022-12-03T22:48:42.784Z,4.50
2022-12-03T22:51:22.102Z,4.50
2022-12-03T22:53:54.995Z,4.50
2022-12-03T22:56:23.339Z,4.70
2022-12-03T22:58:50.969Z,4.50
2022-12-03T23:01:27.514Z,4.50
2022-12-03T23:03:55.452Z,4.60
2022-12-03T23:06:24.048Z,4.60
2022-12-03T23:08:52.128Z,4.60
2022-12-03T23:11:20.290Z,4.50
2022-12-03T23:13:47.936Z,4.60
2022-12-03T23:16:18.706Z,4.60
2022-12-03T23:18:46.442Z,4.50
2022-12-03T23:21:24.021Z,4.60
2022-12-03T23:23:56.525Z,4.60
2022-12-03T23:26:24.105Z,4.60
2022-12-03T23:28:51.838Z,4.60
2022-12-03T23:31:20.706Z,4.60
2022-12-03T23:33:48.368Z,4.50
2022-12-03T23:36:16.752Z,4.60
2022-12-03T23:38:44.295Z,4.60
2022-12-03T23:41:14.045Z,4.60
2022-12-03T23:43:41.923Z,4.60
2022-12-03T23:46:12.282Z,4.60
2022-12-03T23:48:39.841Z,4.60
2022-12-03T23:51:12.101Z,4.60
2022-12-03T23:53:39.800Z,4.60
2022-12-03T23:56:13.719Z,4.60
2022-12-03T23:58:41.015Z,4.60
